createdAt,value
2017-10-29T00:02:02.265Z,8.53
2017-10-29T00:04:29.893Z,8.70
2017-10-29T00:06:57.509Z,6.60
2017-10-29T00:09:25.194Z,7.37
2017-10-29T00:11:53.589Z,11.00
2017-10-29T00:14:21.225Z,8.00
2017-10-29T00:16:48.913Z,5.83
2017-10-29T00:19:16.509Z,5.90
2017-10-29T00:21:44.150Z,16.07
2017-10-29T00:24:11.772Z,5.60
2017-10-29T00:26:40.147Z,6.70
2017-10-29T00:29:07.793Z,12.77
2017-10-29T00:31:35.405Z,4.33
2017-10-29T00:34:02.997Z,6.70
2017-10-29T00:36:32.258Z,7.00
2017-10-29T00:38:59.872Z,7.40
2017-10-29T00:41:27.990Z,3.00
2017-10-29T00:43:55.593Z,10.07
2017-10-29T00:46:23.197Z,2.40
2017-10-29T00:48:51.593Z,5.03
2017-10-29T00:51:19.213Z,4.07
2017-10-29T00:53:46.850Z,5.77
2017-10-29T00:56:14.463Z,9.10
2017-10-29T00:58:42.829Z,6.33
2017-10-29T01:01:10.475Z,8.00
2017-10-29T01:03:38.110Z,7.57
2017-10-29T01:06:05.737Z,5.67
2017-10-29T01:08:33.356Z,6.50
2017-10-29T01:11:00.964Z,4.00
2017-10-29T01:13:28.590Z,9.70
2017-10-29T01:15:56.187Z,13.40
2017-10-29T01:18:23.835Z,9.33
2017-10-29T01:20:52.204Z,12.93
2017-10-29T01:23:20.572Z,7.93
2017-10-29T01:25:48.234Z,7.97
2017-10-29T01:28:15.824Z,10.73
2017-10-29T01:30:43.469Z,4.83
2017-10-29T01:33:11.850Z,13.60
2017-10-29T01:35:40.226Z,4.30
2017-10-29T01:38:08.626Z,5.07
2017-10-29T01:40:36.241Z,5.83
2017-10-29T01:43:03.890Z,13.40
2017-10-29T01:45:31.496Z,9.20
2017-10-29T01:47:59.897Z,11.67
2017-10-29T01:50:27.492Z,12.47
2017-10-29T01:52:55.114Z,12.00
2017-10-29T01:55:22.725Z,12.03
2017-10-29T01:57:51.114Z,9.47
2017-10-29T02:00:19.481Z,10.50
2017-10-29T02:02:47.144Z,22.70
2017-10-29T02:05:14.765Z,17.30
2017-10-29T02:07:42.406Z,15.97
2017-10-29T02:10:10.005Z,15.43
2017-10-29T02:12:37.633Z,13.67
2017-10-29T02:15:05.226Z,12.70
2017-10-29T02:17:32.850Z,6.13
2017-10-29T02:20:00.447Z,14.37
2017-10-29T02:22:28.086Z,7.53
2017-10-29T02:24:55.755Z,5.53
2017-10-29T02:27:23.373Z,8.73
2017-10-29T02:29:51.805Z,6.50
2017-10-29T02:32:19.427Z,10.00
2017-10-29T02:34:47.817Z,9.13
2017-10-29T02:37:15.512Z,7.07
2017-10-29T02:39:43.112Z,6.07
2017-10-29T02:42:11.514Z,6.97
2017-10-29T02:44:39.116Z,6.53
2017-10-29T02:47:06.753Z,15.97
2017-10-29T02:49:34.350Z,11.37
2017-10-29T02:52:01.952Z,12.43
2017-10-29T02:54:29.575Z,10.93
2017-10-29T02:56:57.177Z,23.80
2017-10-29T02:59:24.802Z,10.80
2017-10-29T03:01:52.401Z,14.67
2017-10-29T03:04:20.028Z,5.07
2017-10-29T03:06:47.619Z,11.67
2017-10-29T03:09:15.277Z,12.43
2017-10-29T03:11:43.643Z,15.03
2017-10-29T03:14:12.057Z,14.07
2017-10-29T03:16:39.673Z,5.97
2017-10-29T03:19:07.270Z,18.70
2017-10-29T03:21:34.907Z,15.10
2017-10-29T03:24:03.285Z,12.97
2017-10-29T03:26:31.693Z,26.10
2017-10-29T03:28:59.298Z,14.23
2017-10-29T03:31:26.938Z,38.33
2017-10-29T03:33:54.541Z,22.03
2017-10-29T03:36:22.938Z,28.07
2017-10-29T03:38:51.301Z,31.47
2017-10-29T03:41:19.691Z,33.53
2017-10-29T03:43:48.060Z,10.57
2017-10-29T03:46:16.462Z,21.47
2017-10-29T03:48:44.081Z,24.60
2017-10-29T03:51:11.765Z,19.43
2017-10-29T03:53:40.131Z,18.67
2017-10-29T03:56:07.755Z,29.13
2017-10-29T03:58:35.386Z,21.73
2017-10-29T04:01:03.021Z,21.57
2017-10-29T04:03:31.396Z,17.63
2017-10-29T04:05:59.802Z,23.03
2017-10-29T04:08:27.404Z,14.47
2017-10-29T04:10:55.005Z,12.83
2017-10-29T04:13:23.398Z,32.70
2017-10-29T04:15:51.035Z,23.00
2017-10-29T04:18:19.405Z,32.30
2017-10-29T04:20:47.027Z,22.13
2017-10-29T04:23:14.628Z,12.53
2017-10-29T04:25:42.252Z,14.33
2017-10-29T04:28:09.852Z,19.27
2017-10-29T04:30:38.244Z,20.57
2017-10-29T04:33:06.633Z,11.03
2017-10-29T04:35:35.038Z,19.03
2017-10-29T04:38:02.664Z,8.00
2017-10-29T04:40:31.081Z,13.43
2017-10-29T04:42:58.696Z,9.90
2017-10-29T04:45:27.131Z,12.13
2017-10-29T04:47:54.733Z,25.80
2017-10-29T04:50:23.138Z,9.63
2017-10-29T04:52:50.737Z,17.43
2017-10-29T04:55:18.367Z,14.37
2017-10-29T04:57:46.014Z,16.00
2017-10-29T05:00:14.399Z,21.70
2017-10-29T05:02:41.997Z,13.50
2017-10-29T05:05:09.641Z,24.27
2017-10-29T05:07:37.244Z,18.53
2017-10-29T05:10:04.841Z,13.47
2017-10-29T05:12:32.501Z,17.13
2017-10-29T05:15:00.153Z,14.07
2017-10-29T05:17:28.513Z,15.53
2017-10-29T05:22:30.216Z,22.27
2017-10-29T05:24:57.833Z,17.30
2017-10-29T05:27:25.433Z,21.93
2017-10-29T05:29:53.080Z,36.47
2017-10-29T05:32:21.446Z,27.33
2017-10-29T05:34:49.847Z,22.87
2017-10-29T05:37:18.214Z,32.30
2017-10-29T05:39:46.621Z,31.20
2017-10-29T05:42:14.248Z,19.10
2017-10-29T05:44:42.690Z,19.07
2017-10-29T05:47:10.341Z,31.50
2017-10-29T05:49:37.970Z,41.17
2017-10-29T05:52:06.353Z,26.63
2017-10-29T05:54:34.727Z,19.87
2017-10-29T05:57:03.152Z,28.53
2017-10-29T05:59:30.815Z,35.00
2017-10-29T06:01:58.431Z,25.97
2017-10-29T06:04:26.838Z,11.33
2017-10-29T06:06:54.441Z,37.00
2017-10-29T06:09:22.062Z,28.80
2017-10-29T06:11:49.735Z,44.50
2017-10-29T06:14:17.351Z,26.83
2017-10-29T06:16:45.745Z,20.07
2017-10-29T06:19:13.344Z,27.03
2017-10-29T06:21:40.988Z,21.90
2017-10-29T06:24:08.619Z,19.30
2017-10-29T06:26:36.253Z,19.93
2017-10-29T06:29:03.872Z,14.33
2017-10-29T06:31:31.509Z,13.57
2017-10-29T06:33:59.113Z,9.10
2017-10-29T06:36:26.733Z,12.40
2017-10-29T06:38:54.329Z,14.20
2017-10-29T06:41:21.944Z,9.37
2017-10-29T06:43:50.333Z,8.70
2017-10-29T06:46:17.961Z,10.50
2017-10-29T06:48:45.600Z,8.77
2017-10-29T06:51:13.189Z,3.47
2017-10-29T06:53:41.609Z,4.83
2017-10-29T06:56:09.217Z,3.67
2017-10-29T06:58:38.343Z,2.67
2017-10-29T07:01:05.989Z,2.77
2017-10-29T07:03:34.377Z,5.33
2017-10-29T07:06:02.746Z,3.27
2017-10-29T07:08:31.140Z,2.27
2017-10-29T07:10:59.540Z,1.80
2017-10-29T07:13:27.150Z,1.80
2017-10-29T07:15:54.747Z,1.47
2017-10-29T07:18:22.382Z,5.80
2017-10-29T07:20:50.764Z,4.97
2017-10-29T07:23:19.210Z,2.83
2017-10-29T07:25:46.829Z,3.07
2017-10-29T07:28:14.521Z,6.33
2017-10-29T07:30:42.134Z,3.43
2017-10-29T07:33:10.538Z,2.73
2017-10-29T07:35:38.135Z,2.40
2017-10-29T07:38:05.785Z,4.07
2017-10-29T07:40:33.442Z,2.67
2017-10-29T07:43:01.037Z,5.87
2017-10-29T07:45:28.677Z,1.57
2017-10-29T07:47:56.507Z,8.30
2017-10-29T07:50:24.198Z,4.30
2017-10-29T07:52:51.803Z,3.27
2017-10-29T07:55:20.208Z,2.50
2017-10-29T07:57:47.806Z,2.50
2017-10-29T08:00:15.444Z,2.30
2017-10-29T08:02:43.076Z,2.37
2017-10-29T08:05:11.440Z,3.33
2017-10-29T08:07:39.046Z,3.63
2017-10-29T08:10:06.701Z,1.83
2017-10-29T08:12:34.317Z,4.87
2017-10-29T08:15:02.078Z,1.23
2017-10-29T08:17:30.475Z,0.77
2017-10-29T08:19:58.887Z,6.33
2017-10-29T08:22:26.477Z,2.07
2017-10-29T08:24:54.093Z,2.90
2017-10-29T08:27:21.691Z,7.13
2017-10-29T08:29:49.318Z,3.37
2017-10-29T08:32:16.942Z,3.17
2017-10-29T08:34:44.598Z,2.13
2017-10-29T08:37:12.201Z,1.80
2017-10-29T08:39:39.829Z,1.23
2017-10-29T08:42:07.423Z,2.37
2017-10-29T08:44:35.053Z,12.10
2017-10-29T08:47:02.780Z,1.70
2017-10-29T08:49:30.414Z,2.00
2017-10-29T08:51:58.017Z,6.87
2017-10-29T08:54:25.654Z,3.03
2017-10-29T08:56:53.241Z,1.17
2017-10-29T08:59:20.824Z,5.30
2017-10-29T09:01:49.221Z,3.37
2017-10-29T09:04:17.600Z,0.70
2017-10-29T09:06:45.205Z,2.87
2017-10-29T09:09:12.841Z,2.30
2017-10-29T09:11:40.446Z,1.40
2017-10-29T09:14:08.076Z,3.00
2017-10-29T09:16:35.740Z,0.93
2017-10-29T09:19:03.369Z,2.23
2017-10-29T09:21:30.977Z,3.53
2017-10-29T09:23:58.598Z,4.03
2017-10-29T09:26:26.210Z,2.80
2017-10-29T09:28:53.840Z,5.70
2017-10-29T09:31:21.448Z,5.73
2017-10-29T09:33:49.834Z,3.87
2017-10-29T09:36:18.208Z,3.07
2017-10-29T09:38:46.605Z,4.10
2017-10-29T09:41:15.001Z,3.43
2017-10-29T09:43:42.620Z,3.07
2017-10-29T09:46:10.248Z,1.10
2017-10-29T09:48:37.847Z,1.80
2017-10-29T09:51:06.215Z,1.27
2017-10-29T09:53:33.945Z,1.40
2017-10-29T09:56:01.545Z,6.93
2017-10-29T09:58:29.901Z,2.40
2017-10-29T10:01:04.657Z,5.83
2017-10-29T10:03:33.039Z,3.80
2017-10-29T10:06:01.402Z,3.23
2017-10-29T10:08:29.032Z,1.80
2017-10-29T10:10:56.836Z,1.87
2017-10-29T10:13:24.894Z,2.70
2017-10-29T10:15:52.664Z,2.20
2017-10-29T10:18:20.498Z,2.93
2017-10-29T10:20:48.292Z,4.87
2017-10-29T10:23:16.109Z,2.00
2017-10-29T10:25:43.871Z,4.20
2017-10-29T10:28:11.692Z,3.33
2017-10-29T10:30:39.947Z,3.93
2017-10-29T10:33:07.750Z,4.87
2017-10-29T10:35:36.307Z,4.43
2017-10-29T10:38:06.406Z,4.73
2017-10-29T10:40:34.340Z,3.37
2017-10-29T10:43:02.151Z,3.17
2017-10-29T10:45:29.933Z,13.13
2017-10-29T10:47:57.742Z,2.20
2017-10-29T10:50:25.533Z,1.70
2017-10-29T10:52:53.360Z,4.00
2017-10-29T10:55:21.170Z,3.13
2017-10-29T10:57:48.985Z,3.30
2017-10-29T11:00:17.516Z,7.07
2017-10-29T11:02:45.277Z,4.90
2017-10-29T11:05:13.999Z,3.83
2017-10-29T11:07:41.744Z,2.50
2017-10-29T11:10:09.509Z,3.47
2017-10-29T11:12:37.323Z,5.30
2017-10-29T11:15:05.093Z,10.07
2017-10-29T11:17:32.943Z,6.67
2017-10-29T11:20:01.504Z,4.93
2017-10-29T11:22:29.282Z,5.47
2017-10-29T11:24:57.644Z,7.47
2017-10-29T11:27:25.269Z,10.40
2017-10-29T11:29:53.039Z,6.83
2017-10-29T11:32:20.799Z,7.40
2017-10-29T11:34:48.620Z,5.03
2017-10-29T11:37:17.150Z,5.70
2017-10-29T11:39:44.928Z,6.30
2017-10-29T11:42:12.739Z,3.80
2017-10-29T11:44:40.524Z,2.10
2017-10-29T11:47:08.349Z,2.83
2017-10-29T11:49:36.096Z,1.07
2017-10-29T11:52:03.898Z,3.40
2017-10-29T11:54:32.476Z,1.30
2017-10-29T11:57:01.073Z,4.43
2017-10-29T11:59:28.837Z,1.10
2017-10-29T12:01:56.653Z,4.47
2017-10-29T12:04:24.413Z,2.37
2017-10-29T12:06:52.313Z,2.33
2017-10-29T12:09:20.977Z,4.00
2017-10-29T12:11:48.872Z,1.80
2017-10-29T12:14:17.406Z,1.70
2017-10-29T12:16:45.280Z,0.97
2017-10-29T12:19:13.150Z,4.23
2017-10-29T12:21:41.016Z,1.27
2017-10-29T12:24:08.880Z,4.03
2017-10-29T12:26:36.654Z,2.53
2017-10-29T12:29:04.451Z,2.93
2017-10-29T12:31:33.096Z,4.20
2017-10-29T12:34:01.069Z,3.20
2017-10-29T12:36:28.929Z,2.20
2017-10-29T12:38:56.902Z,2.70
2017-10-29T12:41:24.762Z,1.07
2017-10-29T12:43:52.633Z,3.43
2017-10-29T12:46:20.506Z,1.10
2017-10-29T12:48:48.367Z,2.73
2017-10-29T12:51:16.365Z,1.23
2017-10-29T12:53:45.021Z,1.27
2017-10-29T12:56:13.337Z,2.00
2017-10-29T12:58:41.992Z,1.10
2017-10-29T13:01:11.396Z,2.07
2017-10-29T13:03:39.250Z,1.37
2017-10-29T13:06:07.225Z,1.43
2017-10-29T13:08:35.088Z,1.70
2017-10-29T13:11:02.964Z,2.50
2017-10-29T13:13:30.823Z,1.50
2017-10-29T13:15:59.097Z,0.70
2017-10-29T13:18:27.073Z,1.13
2017-10-29T13:20:55.038Z,2.83
2017-10-29T13:23:22.912Z,1.57
2017-10-29T13:25:50.753Z,2.87
2017-10-29T13:28:18.525Z,0.83
2017-10-29T13:30:46.109Z,2.00
2017-10-29T13:33:13.769Z,3.13
2017-10-29T13:35:41.361Z,1.10
2017-10-29T13:38:09.731Z,2.73
2017-10-29T13:40:38.125Z,0.83
2017-10-29T13:43:05.714Z,6.33
2017-10-29T13:45:33.336Z,4.10
2017-10-29T13:48:01.698Z,0.83
2017-10-29T13:50:30.110Z,2.47
2017-10-29T13:52:57.697Z,2.10
2017-10-29T13:55:25.806Z,1.73
2017-10-29T13:57:53.404Z,1.00
2017-10-29T14:00:21.033Z,2.40
2017-10-29T14:02:49.415Z,0.80
2017-10-29T14:05:17.047Z,0.90
2017-10-29T14:07:44.640Z,3.37
2017-10-29T14:10:13.199Z,1.80
2017-10-29T14:12:40.801Z,3.47
2017-10-29T14:15:08.430Z,2.60
2017-10-29T14:17:36.025Z,0.67
2017-10-29T14:20:03.656Z,4.03
2017-10-29T14:22:31.265Z,1.00
2017-10-29T14:24:58.904Z,2.40
2017-10-29T14:27:26.489Z,2.00
2017-10-29T14:29:54.312Z,1.60
2017-10-29T14:32:22.903Z,0.70
2017-10-29T14:34:51.431Z,2.07
2017-10-29T14:37:19.225Z,2.90
2017-10-29T14:39:47.155Z,1.00
2017-10-29T14:42:14.948Z,0.90
2017-10-29T14:44:42.775Z,1.27
2017-10-29T14:47:10.635Z,4.57
2017-10-29T14:49:38.470Z,1.67
2017-10-29T14:52:06.233Z,5.90
2017-10-29T14:54:34.839Z,6.03
2017-10-29T14:57:02.619Z,1.07
2017-10-29T14:59:30.436Z,0.90
2017-10-29T15:01:58.169Z,2.43
2017-10-29T15:04:25.978Z,0.93
2017-10-29T15:06:53.731Z,5.90
2017-10-29T15:09:21.546Z,1.40
2017-10-29T15:11:49.302Z,0.80
2017-10-29T15:14:17.121Z,5.40
2017-10-29T15:16:44.937Z,1.57
2017-10-29T15:19:12.720Z,4.87
2017-10-29T15:21:41.253Z,2.17
2017-10-29T15:24:09.870Z,2.73
2017-10-29T15:26:37.778Z,2.30
2017-10-29T15:29:05.743Z,7.07
2017-10-29T15:31:33.613Z,5.20
2017-10-29T15:34:01.480Z,2.53
2017-10-29T15:36:29.458Z,4.67
2017-10-29T15:38:57.308Z,1.20
2017-10-29T15:41:25.182Z,1.40
2017-10-29T15:43:52.829Z,6.10
2017-10-29T15:46:20.433Z,7.93
2017-10-29T15:48:48.824Z,3.17
2017-10-29T15:51:17.189Z,6.03
2017-10-29T15:53:45.588Z,5.87
2017-10-29T15:56:13.185Z,2.80
2017-10-29T15:58:40.812Z,4.80
2017-10-29T16:01:08.409Z,8.67
2017-10-29T16:03:36.065Z,4.37
2017-10-29T16:06:03.663Z,4.30
2017-10-29T16:08:31.291Z,25.70
2017-10-29T16:10:58.893Z,12.57
2017-10-29T16:13:27.286Z,11.30
2017-10-29T16:15:55.658Z,12.30
2017-10-29T16:18:24.049Z,6.70
2017-10-29T16:20:52.408Z,12.30
2017-10-29T16:23:20.784Z,4.77
2017-10-29T16:25:49.149Z,28.43
2017-10-29T16:28:16.886Z,7.03
2017-10-29T16:30:45.181Z,7.90
2017-10-29T16:33:12.783Z,6.40
2017-10-29T16:35:41.185Z,5.40
2017-10-29T16:38:08.793Z,6.83
2017-10-29T16:40:36.382Z,6.30
2017-10-29T16:43:04.307Z,5.47
2017-10-29T16:45:32.178Z,11.40
2017-10-29T16:48:00.044Z,11.97
2017-10-29T16:50:28.012Z,6.50
2017-10-29T16:52:55.877Z,9.90
2017-10-29T16:55:23.844Z,7.03
2017-10-29T16:57:51.608Z,9.77
2017-10-29T17:00:19.476Z,9.37
2017-10-29T17:02:47.245Z,5.03
2017-10-29T17:05:15.209Z,6.63
2017-10-29T17:07:43.075Z,7.83
2017-10-29T17:10:10.940Z,6.10
2017-10-29T17:12:39.809Z,8.23
2017-10-29T17:15:09.411Z,7.60
2017-10-29T17:17:38.101Z,9.40
2017-10-29T17:20:06.574Z,8.43
2017-10-29T17:22:35.162Z,7.60
2017-10-29T17:25:03.160Z,7.77
2017-10-29T17:27:30.922Z,12.87
2017-10-29T17:29:58.787Z,10.70
2017-10-29T17:32:26.656Z,6.80
2017-10-29T17:34:54.630Z,11.63
2017-10-29T17:37:22.500Z,1.80
2017-10-29T17:39:50.918Z,8.33
2017-10-29T17:42:19.281Z,6.97
2017-10-29T17:44:47.840Z,15.40
2017-10-29T17:47:15.697Z,9.13
2017-10-29T17:49:43.635Z,6.40
2017-10-29T17:52:11.533Z,6.57
2017-10-29T17:54:40.114Z,6.57
2017-10-29T17:57:07.989Z,12.13
2017-10-29T17:59:35.853Z,6.30
2017-10-29T18:02:03.830Z,8.27
2017-10-29T18:04:31.692Z,4.10
2017-10-29T18:06:59.657Z,11.27
2017-10-29T18:09:27.531Z,8.50
2017-10-29T18:11:55.489Z,8.53
2017-10-29T18:14:23.476Z,11.20
2017-10-29T18:16:51.334Z,12.03
2017-10-29T18:19:19.115Z,5.73
2017-10-29T18:21:46.931Z,8.17
2017-10-29T18:24:14.715Z,10.37
2017-10-29T18:26:42.535Z,7.03
2017-10-29T18:29:11.049Z,4.80
2017-10-29T18:31:38.841Z,3.73
2017-10-29T18:34:06.666Z,8.47
2017-10-29T18:36:34.423Z,20.37
2017-10-29T18:39:02.237Z,7.10
2017-10-29T18:41:30.037Z,6.30
2017-10-29T18:43:58.575Z,7.93
2017-10-29T18:46:26.390Z,8.37
2017-10-29T18:48:54.930Z,7.93
2017-10-29T18:51:26.469Z,9.03
2017-10-29T18:53:54.061Z,7.23
2017-10-29T18:56:21.683Z,11.43
2017-10-29T18:58:49.281Z,10.93
2017-10-29T19:01:16.898Z,7.70
2017-10-29T19:03:44.533Z,8.23
2017-10-29T19:06:12.172Z,8.77
2017-10-29T19:08:40.541Z,14.77
2017-10-29T19:11:08.175Z,7.27
2017-10-29T19:13:35.773Z,17.07
2017-10-29T19:16:03.426Z,4.53
2017-10-29T19:18:31.025Z,10.87
2017-10-29T19:20:58.713Z,6.37
2017-10-29T19:23:26.315Z,6.63
2017-10-29T19:25:53.964Z,11.00
2017-10-29T19:28:21.558Z,8.20
2017-10-29T19:30:49.934Z,7.03
2017-10-29T19:33:18.349Z,8.30
2017-10-29T19:35:45.955Z,9.40
2017-10-29T19:38:13.553Z,4.77
2017-10-29T19:40:41.168Z,16.93
2017-10-29T19:43:08.758Z,6.13
2017-10-29T19:45:36.389Z,13.70
2017-10-29T19:48:04.000Z,10.27
2017-10-29T19:50:31.890Z,6.63
2017-10-29T19:52:59.644Z,8.07
2017-10-29T19:55:27.541Z,19.43
2017-10-29T19:57:55.318Z,9.60
2017-10-29T20:00:23.147Z,13.03
2017-10-29T20:02:50.958Z,10.37
2017-10-29T20:05:19.580Z,7.90
2017-10-29T20:07:47.447Z,17.50
2017-10-29T20:10:15.353Z,10.33
2017-10-29T20:12:43.173Z,13.37
2017-10-29T20:15:10.995Z,12.57
2017-10-29T20:17:38.749Z,8.13
2017-10-29T20:20:06.562Z,5.87
2017-10-29T20:22:34.348Z,14.83
2017-10-29T20:25:02.162Z,10.30
2017-10-29T20:27:29.946Z,14.57
2017-10-29T20:29:58.567Z,12.53
2017-10-29T20:32:26.345Z,7.33
2017-10-29T20:34:54.122Z,22.90
2017-10-29T20:37:21.948Z,11.13
2017-10-29T20:39:49.711Z,10.53
2017-10-29T20:42:17.463Z,7.67
2017-10-29T20:44:45.269Z,10.63
2017-10-29T20:47:13.045Z,17.90
2017-10-29T20:49:40.855Z,12.20
2017-10-29T20:52:08.609Z,10.47
2017-10-29T20:54:37.194Z,7.90
2017-10-29T20:57:05.744Z,26.43
2017-10-29T20:59:33.576Z,21.23
2017-10-29T21:02:01.362Z,14.10
2017-10-29T21:04:29.170Z,15.50
2017-10-29T21:06:57.716Z,6.43
2017-10-29T21:09:25.558Z,11.80
2017-10-29T21:11:53.341Z,9.73
2017-10-29T21:14:21.422Z,21.53
2017-10-29T21:16:49.392Z,10.30
2017-10-29T21:19:17.212Z,8.40
2017-10-29T21:21:45.015Z,8.43
2017-10-29T21:24:13.303Z,11.70
2017-10-29T21:26:41.226Z,14.80
2017-10-29T21:29:09.041Z,18.23
2017-10-29T21:31:36.803Z,11.50
2017-10-29T21:34:04.607Z,11.80
2017-10-29T21:36:32.425Z,29.27
2017-10-29T21:39:00.205Z,11.70
2017-10-29T21:41:28.083Z,14.47
2017-10-29T21:43:55.898Z,6.23
2017-10-29T21:46:23.677Z,12.60
2017-10-29T21:48:51.512Z,16.77
2017-10-29T21:51:19.295Z,9.13
2017-10-29T21:53:47.132Z,21.37
2017-10-29T21:56:14.917Z,8.40
2017-10-29T21:58:42.724Z,11.87
2017-10-29T22:01:10.509Z,11.90
2017-10-29T22:03:39.093Z,14.80
2017-10-29T22:06:07.659Z,6.00
2017-10-29T22:08:35.459Z,13.53
2017-10-29T22:11:03.224Z,18.70
2017-10-29T22:13:31.036Z,8.23
2017-10-29T22:15:58.819Z,12.23
2017-10-29T22:18:26.638Z,9.97
2017-10-29T22:20:54.422Z,7.20
2017-10-29T22:23:22.231Z,8.80
2017-10-29T22:25:50.763Z,20.53
2017-10-29T22:28:18.545Z,13.40
2017-10-29T22:30:46.393Z,9.37
2017-10-29T22:33:14.188Z,7.40
2017-10-29T22:35:41.975Z,4.80
2017-10-29T22:38:10.628Z,5.60
2017-10-29T22:40:38.229Z,8.30
2017-10-29T22:43:06.600Z,8.77
2017-10-29T22:45:35.002Z,18.60
2017-10-29T22:48:02.609Z,7.30
2017-10-29T22:50:30.364Z,12.73
2017-10-29T22:52:58.028Z,13.90
2017-10-29T22:55:25.628Z,18.53
2017-10-29T22:57:54.001Z,12.97
2017-10-29T23:00:21.646Z,4.70
2017-10-29T23:02:50.053Z,7.47
2017-10-29T23:05:30.522Z,17.30
2017-10-29T23:08:16.895Z,34.13
2017-10-29T23:10:44.542Z,8.00
2017-10-29T23:13:12.152Z,17.10
2017-10-29T23:15:39.745Z,14.57
2017-10-29T23:18:07.391Z,7.10
2017-10-29T23:20:35.014Z,9.60
2017-10-29T23:23:03.394Z,10.43
2017-10-29T23:25:31.793Z,14.20
2017-10-29T23:27:59.390Z,5.30
2017-10-29T23:30:27.002Z,4.97
2017-10-29T23:32:55.404Z,9.30
2017-10-29T23:35:23.199Z,13.20
2017-10-29T23:37:51.783Z,15.80
2017-10-29T23:40:19.421Z,14.07
2017-10-29T23:42:47.038Z,13.60
2017-10-29T23:45:15.406Z,11.17
2017-10-29T23:47:43.042Z,21.63
2017-10-29T23:50:10.649Z,10.23
2017-10-29T23:52:39.079Z,7.33
2017-10-29T23:55:06.726Z,10.17
2017-10-29T23:57:34.320Z,12.37
